AYMH/HGU METAR and TAF weather

Enter ICAO airport designator
Station Type Date Time Source
AYMH METAR 2022/06/27 08:00 UTC NOAA

AYMH 270800Z VRB03KT 9999 BKN040 19/17 Q1018=


Station Type Date Time Source
AYMH Decoded METAR 2022/06/27 08:00 UTC NOAA

Station name not available
Jun 27, 2022 - 04:00 AM EDT / 2022.06.27 0800 UTC
Wind: Variable at 3 MPH (3 KT):0
Visibility: greater than 7 mile(s):0
Sky conditions: mostly cloudy
Temperature: 66 F (19 C)
Dew Point: 62 F (17 C)
Relative Humidity: 88%
Pressure (altimeter): 30.06 in. Hg (1018 hPa)
ob: AYMH 270800Z VRB03KT 9999 BKN040 19/17 Q1018=
cycle: 8

Station Type Date Time Source
AYMH TAF UTC NOAA

Error!

Example: see airport list